Rex, Georgia
Current Conditions -  °F | °C
As of 12:52 AM on Thursday 27 Nov 2014 (Local Time) from KATL Reporting Station
Scattered Clouds Scattered Clouds  
Wind Chill: 44°   Ceiling: Unl
Heat Index: 49°   Visibility: 10mi
Dew Point: 29°   Wind: 13mph
Humidity: 46%   Direction: 270°W
Pressure: 30.07"   Gusts: 21mph
Location:  33.59°N, 84.27°W
Report Text: KATL 270552Z 27011G18KT 10SM FEW055 SCT085 09/M02 A3007 RMK AO2 SLP183 T00941017 10094 20072 53005
Loading
Personal Weather Stations






























Interactive Weather Map New forecast layout! Learn more

10-Day Weather Forecast

Advertisements
Track Severe Weather on mobile